Weaver, Minnesota
Current Conditions -  °F | °C
As of 11:14 AM on Thursday 27 Nov 2014 (Local Time) from KONA Reporting Station
Clear Clear  
Wind Chill: -17°   Ceiling: Unl
Heat Index: -12°   Visibility: 10mi
Dew Point: -18°   Wind: 5mph
Humidity: 62%   Direction: 360°N
Pressure: 30.5"   Gusts: NA
Location:  44.1503°N, 91.9879°W
Report Text: KONA 271714Z AUTO 36004KT 10SM CLR M12/M18 A3050 RMK AO2
Loading
Personal Weather Stations






























Interactive Weather Map New forecast layout! Learn more

10-Day Weather Forecast

Advertisements
Track Severe Weather on mobile